createdAt,value
2018-02-21T00:01:52.125Z,74.15
2018-02-21T00:04:20.630Z,74.02
2018-02-21T00:06:49.133Z,74.38
2018-02-21T00:09:17.631Z,74.28
2018-02-21T00:11:46.139Z,74.17
2018-02-21T00:14:14.614Z,74.38
2018-02-21T00:16:43.106Z,74.50
2018-02-21T00:19:11.594Z,74.54
2018-02-21T00:21:40.082Z,74.75
2018-02-21T00:24:08.630Z,74.68
2018-02-21T00:26:37.122Z,74.45
2018-02-21T00:29:05.592Z,74.89
2018-02-21T00:31:34.076Z,74.67
2018-02-21T00:34:02.574Z,75.06
2018-02-21T00:36:31.048Z,75.35
2018-02-21T00:38:59.590Z,75.13
2018-02-21T00:41:28.050Z,75.70
2018-02-21T00:43:56.547Z,75.58
2018-02-21T00:46:25.049Z,75.48
2018-02-21T00:48:53.562Z,75.98
2018-02-21T00:51:22.003Z,75.63
2018-02-21T00:53:50.462Z,75.89
2018-02-21T00:56:18.955Z,75.68
2018-02-21T00:58:47.453Z,75.79
2018-02-21T01:01:15.906Z,76.56
2018-02-21T01:03:44.379Z,76.19
2018-02-21T01:06:12.871Z,76.48
2018-02-21T01:08:41.360Z,76.12
2018-02-21T01:11:09.855Z,76.13
2018-02-21T01:13:38.314Z,76.62
2018-02-21T01:16:06.819Z,75.94
2018-02-21T01:18:35.318Z,76.38
2018-02-21T01:21:03.814Z,76.26
2018-02-21T01:23:32.294Z,76.02
2018-02-21T01:26:00.786Z,76.19
2018-02-21T01:28:29.282Z,76.09
2018-02-21T01:30:57.742Z,76.07
2018-02-21T01:33:26.239Z,76.15
2018-02-21T01:35:54.742Z,76.37
2018-02-21T01:38:23.266Z,76.64
2018-02-21T01:40:51.740Z,76.66
2018-02-21T01:43:20.273Z,76.15
2018-02-21T01:45:48.774Z,76.41
2018-02-21T01:48:17.237Z,76.99
2018-02-21T01:50:52.505Z,76.61
2018-02-21T01:53:21.011Z,76.65
2018-02-21T01:55:49.487Z,76.59
2018-02-21T01:58:17.947Z,76.73
2018-02-21T02:00:46.464Z,76.60
2018-02-21T02:03:14.941Z,76.65
2018-02-21T02:05:43.437Z,76.41
2018-02-21T02:08:11.930Z,76.38
2018-02-21T02:10:40.445Z,77.29
2018-02-21T02:13:08.957Z,76.60
2018-02-21T02:15:37.418Z,76.40
2018-02-21T02:18:05.918Z,76.30
2018-02-21T02:20:34.411Z,76.87
2018-02-21T02:23:02.910Z,76.50
2018-02-21T02:25:31.411Z,76.65
2018-02-21T02:27:59.918Z,76.57
2018-02-21T02:30:28.417Z,76.52
2018-02-21T02:32:56.893Z,76.46
2018-02-21T02:35:25.402Z,75.98
2018-02-21T02:37:53.861Z,76.35
2018-02-21T02:40:22.376Z,76.24
2018-02-21T02:42:50.874Z,75.91
2018-02-21T02:45:19.338Z,75.90
2018-02-21T02:47:47.834Z,75.87
2018-02-21T02:50:16.299Z,76.06
2018-02-21T02:52:44.812Z,76.12
2018-02-21T02:55:13.314Z,76.12
2018-02-21T02:57:41.770Z,76.31
2018-02-21T03:00:10.345Z,76.07
2018-02-21T03:02:38.855Z,75.99
2018-02-21T03:05:07.371Z,75.79
2018-02-21T03:07:35.815Z,75.61
2018-02-21T03:10:04.343Z,75.52
2018-02-21T03:12:32.846Z,75.65
2018-02-21T03:15:01.313Z,75.45
2018-02-21T03:17:29.822Z,75.49
2018-02-21T03:19:58.281Z,75.38
2018-02-21T03:22:26.738Z,75.40
2018-02-21T03:24:55.257Z,75.33
2018-02-21T03:27:23.731Z,75.08
2018-02-21T03:29:52.202Z,75.01
2018-02-21T03:32:22.649Z,75.31
2018-02-21T03:34:51.127Z,74.89
2018-02-21T03:37:19.589Z,74.74
2018-02-21T03:39:48.124Z,75.02
2018-02-21T03:42:16.613Z,74.92
2018-02-21T03:44:45.095Z,74.97
2018-02-21T03:47:13.626Z,74.67
2018-02-21T03:49:42.102Z,74.53
2018-02-21T03:52:10.568Z,74.37
2018-02-21T03:54:39.066Z,74.65
2018-02-21T03:57:07.542Z,74.54
2018-02-21T03:59:36.135Z,74.45
2018-02-21T04:02:04.590Z,74.54
2018-02-21T04:04:33.050Z,74.31
2018-02-21T04:07:01.565Z,74.60
2018-02-21T04:09:30.090Z,74.63
2018-02-21T04:11:58.562Z,74.41
2018-02-21T04:14:27.018Z,74.31
2018-02-21T04:16:55.535Z,74.35
2018-02-21T04:19:23.998Z,74.49
2018-02-21T04:21:52.494Z,74.26
2018-02-21T04:24:20.990Z,74.17
2018-02-21T04:26:49.491Z,74.18
2018-02-21T04:29:17.950Z,74.18
2018-02-21T04:31:46.429Z,75.13
2018-02-21T04:34:14.922Z,74.53
2018-02-21T04:36:43.382Z,74.34
2018-02-21T04:39:11.898Z,74.24
2018-02-21T04:41:40.393Z,74.26
2018-02-21T04:44:08.882Z,74.25
2018-02-21T04:46:37.350Z,74.20
2018-02-21T04:49:05.847Z,74.17
2018-02-21T04:51:34.350Z,73.98
2018-02-21T04:54:02.814Z,74.02
2018-02-21T04:56:49.769Z,73.98
2018-02-21T04:59:18.813Z,73.84
2018-02-21T05:01:47.291Z,73.93
2018-02-21T05:04:15.790Z,73.91
2018-02-21T05:06:44.322Z,74.25
2018-02-21T05:09:12.773Z,74.30
2018-02-21T05:11:41.234Z,74.43
2018-02-21T05:14:09.736Z,74.25
2018-02-21T05:16:38.191Z,74.38
2018-02-21T05:19:06.685Z,74.17
2018-02-21T05:21:35.159Z,74.60
2018-02-21T05:24:03.650Z,74.39
2018-02-21T05:26:32.158Z,74.28
2018-02-21T05:29:00.649Z,74.41
2018-02-21T05:31:29.138Z,74.35
2018-02-21T05:33:57.602Z,74.34
2018-02-21T05:36:26.140Z,74.43
2018-02-21T05:38:54.639Z,74.39
2018-02-21T05:41:23.102Z,74.33
2018-02-21T05:43:51.590Z,74.66
2018-02-21T05:46:20.052Z,74.44
2018-02-21T05:48:48.566Z,74.56
2018-02-21T05:51:17.035Z,74.42
2018-02-21T05:53:45.525Z,74.50
2018-02-21T05:56:14.026Z,74.54
2018-02-21T05:58:42.526Z,74.43
2018-02-21T06:01:11.063Z,74.31
2018-02-21T06:03:39.534Z,74.52
2018-02-21T06:06:08.058Z,74.82
2018-02-21T06:08:36.504Z,74.82
2018-02-21T06:11:05.001Z,75.56
2018-02-21T06:13:33.462Z,74.80
2018-02-21T06:16:01.983Z,74.61
2018-02-21T06:18:30.493Z,74.77
2018-02-21T06:20:58.970Z,74.55
2018-02-21T06:23:27.483Z,74.39
2018-02-21T06:25:55.983Z,74.71
2018-02-21T06:28:24.461Z,74.47
2018-02-21T06:30:52.993Z,74.44
2018-02-21T06:33:21.518Z,74.46
2018-02-21T06:35:50.007Z,74.17
2018-02-21T06:38:18.507Z,74.90
2018-02-21T06:40:46.978Z,74.44
2018-02-21T06:43:15.464Z,74.24
2018-02-21T06:45:43.966Z,74.25
2018-02-21T06:48:12.452Z,73.81
2018-02-21T06:50:41.007Z,73.93
2018-02-21T06:53:09.483Z,73.84
2018-02-21T06:55:38.010Z,73.80
2018-02-21T06:58:06.491Z,73.78
2018-02-21T07:00:34.997Z,73.67
2018-02-21T07:03:03.458Z,73.50
2018-02-21T07:05:32.202Z,73.65
2018-02-21T07:08:00.748Z,73.19
2018-02-21T07:10:29.209Z,73.24
2018-02-21T07:12:57.710Z,73.18
2018-02-21T07:15:26.265Z,73.13
2018-02-21T07:17:54.717Z,73.23
2018-02-21T07:20:23.229Z,73.00
2018-02-21T07:22:51.709Z,73.24
2018-02-21T07:25:20.214Z,72.78
2018-02-21T07:27:48.677Z,72.44
2018-02-21T07:30:17.169Z,72.37
2018-02-21T07:32:45.666Z,72.54
2018-02-21T07:35:14.127Z,72.25
2018-02-21T07:37:42.630Z,71.72
2018-02-21T07:40:11.186Z,72.01
2018-02-21T07:42:39.691Z,71.85
2018-02-21T07:45:08.233Z,72.25
2018-02-21T07:47:36.726Z,72.07
2018-02-21T07:50:05.218Z,72.04
2018-02-21T07:52:33.739Z,72.06
2018-02-21T07:55:02.240Z,72.38
2018-02-21T07:57:30.790Z,73.15
2018-02-21T07:59:59.265Z,72.61
2018-02-21T08:02:27.739Z,72.21
2018-02-21T08:04:56.246Z,71.84
2018-02-21T08:07:24.751Z,71.94
2018-02-21T08:09:53.256Z,71.64
2018-02-21T08:12:21.714Z,71.77
2018-02-21T08:14:50.229Z,70.95
2018-02-21T08:17:18.742Z,71.20
2018-02-21T08:19:47.210Z,71.25
2018-02-21T08:22:15.898Z,71.11
2018-02-21T08:24:44.446Z,71.39
2018-02-21T08:27:12.955Z,71.39
2018-02-21T08:29:41.414Z,71.40
2018-02-21T08:32:09.914Z,70.83
2018-02-21T08:34:38.408Z,70.71
2018-02-21T08:37:06.931Z,70.55
2018-02-21T08:39:35.444Z,70.62
2018-02-21T08:42:03.912Z,70.61
2018-02-21T08:44:32.438Z,70.48
2018-02-21T08:47:00.944Z,69.85
2018-02-21T08:49:29.447Z,69.84
2018-02-21T08:51:57.950Z,69.92
2018-02-21T08:54:26.465Z,69.54
2018-02-21T08:56:54.938Z,69.94
2018-02-21T08:59:23.450Z,69.82
2018-02-21T09:01:51.930Z,69.52
2018-02-21T09:04:20.451Z,69.59
2018-02-21T09:06:48.961Z,69.42
2018-02-21T09:09:17.435Z,69.94
2018-02-21T09:11:45.910Z,70.06
2018-02-21T09:14:14.346Z,69.78
2018-02-21T09:16:42.921Z,69.87
2018-02-21T09:19:11.411Z,68.64
2018-02-21T09:21:39.919Z,68.06
2018-02-21T09:24:08.380Z,68.51
2018-02-21T09:26:36.841Z,68.14
2018-02-21T09:29:05.326Z,67.48
2018-02-21T09:31:33.793Z,66.75
2018-02-21T09:34:02.307Z,67.38
2018-02-21T09:36:30.804Z,67.13
2018-02-21T09:38:59.268Z,66.78
2018-02-21T09:41:27.767Z,67.19
2018-02-21T09:43:56.274Z,67.33
2018-02-21T09:46:24.814Z,66.84
2018-02-21T09:48:53.259Z,66.77
2018-02-21T09:51:21.789Z,66.28
2018-02-21T09:53:50.249Z,66.25
2018-02-21T09:56:18.714Z,66.33
2018-02-21T09:58:47.178Z,66.91
2018-02-21T10:01:15.736Z,66.87
2018-02-21T10:03:44.207Z,66.34
2018-02-21T10:06:12.713Z,66.83
2018-02-21T10:08:41.210Z,67.45
2018-02-21T10:11:09.671Z,66.12
2018-02-21T10:13:38.193Z,66.41
2018-02-21T10:16:06.666Z,66.04
2018-02-21T10:18:35.165Z,65.98
2018-02-21T10:21:03.663Z,66.05
2018-02-21T10:23:32.125Z,66.70
2018-02-21T10:26:00.636Z,65.76
2018-02-21T10:28:29.096Z,65.73
2018-02-21T10:30:57.575Z,66.21
2018-02-21T10:33:26.082Z,65.36
2018-02-21T10:35:54.571Z,65.15
2018-02-21T10:38:23.085Z,65.57
2018-02-21T10:40:51.550Z,65.81
2018-02-21T10:43:20.046Z,65.58
2018-02-21T10:45:48.548Z,64.09
2018-02-21T10:48:17.012Z,65.06
2018-02-21T10:50:45.790Z,64.75
2018-02-21T10:53:14.250Z,65.25
2018-02-21T10:55:42.758Z,64.47
2018-02-21T10:58:12.110Z,64.52
2018-02-21T11:00:46.187Z,64.10
2018-02-21T11:03:14.658Z,65.78
2018-02-21T11:05:43.165Z,66.72
2018-02-21T11:08:11.688Z,65.69
2018-02-21T11:10:40.217Z,66.04
2018-02-21T11:13:08.681Z,64.90
2018-02-21T11:15:37.147Z,64.87
2018-02-21T11:18:05.639Z,64.59
2018-02-21T11:20:34.104Z,64.88
2018-02-21T11:23:02.629Z,65.13
2018-02-21T11:25:31.101Z,64.99
2018-02-21T11:27:59.921Z,65.19
2018-02-21T11:30:28.384Z,65.04
2018-02-21T11:32:56.922Z,65.11
2018-02-21T11:35:25.444Z,65.37
2018-02-21T11:37:53.990Z,65.59
2018-02-21T11:40:22.464Z,65.59
2018-02-21T11:42:50.970Z,65.63
2018-02-21T11:45:19.466Z,65.88
2018-02-21T11:47:47.923Z,66.07
2018-02-21T11:50:16.422Z,66.40
2018-02-21T11:52:44.918Z,66.67
2018-02-21T11:55:13.382Z,66.75
2018-02-21T11:57:41.884Z,66.47
2018-02-21T12:00:10.418Z,66.47
2018-02-21T12:02:38.987Z,66.71
2018-02-21T12:05:07.493Z,66.53
2018-02-21T12:07:35.993Z,66.95
2018-02-21T12:10:04.498Z,66.57
2018-02-21T12:12:33.065Z,66.96
2018-02-21T12:15:01.567Z,66.98
2018-02-21T12:17:30.076Z,66.92
2018-02-21T12:19:58.575Z,67.53
2018-02-21T12:22:27.045Z,68.24
2018-02-21T12:24:55.556Z,67.74
2018-02-21T12:27:24.028Z,67.33
2018-02-21T12:29:52.538Z,67.32
2018-02-21T12:32:24.392Z,67.63
2018-02-21T12:34:52.912Z,67.79
2018-02-21T12:37:21.379Z,67.67
2018-02-21T12:39:49.918Z,67.58
2018-02-21T12:42:18.401Z,68.15
2018-02-21T12:44:46.884Z,67.99
2018-02-21T12:47:15.363Z,67.83
2018-02-21T12:49:43.867Z,68.16
2018-02-21T12:52:12.334Z,67.76
2018-02-21T12:54:40.872Z,68.50
2018-02-21T12:57:09.367Z,68.45
2018-02-21T12:59:37.842Z,68.07
2018-02-21T13:02:06.310Z,68.25
2018-02-21T13:04:34.814Z,68.56
2018-02-21T13:07:03.327Z,68.68
2018-02-21T13:09:31.822Z,68.96
2018-02-21T13:12:00.296Z,68.85
2018-02-21T13:14:28.838Z,68.48
2018-02-21T13:16:57.309Z,68.89
2018-02-21T13:19:25.811Z,68.43
2018-02-21T13:21:54.260Z,68.49
2018-02-21T13:24:22.754Z,69.07
2018-02-21T13:26:51.231Z,69.29
2018-02-21T13:29:19.695Z,69.51
2018-02-21T13:31:48.197Z,69.36
2018-02-21T13:34:16.664Z,69.29
2018-02-21T13:36:45.163Z,69.54
2018-02-21T13:39:13.676Z,69.37
2018-02-21T13:41:42.166Z,69.38
2018-02-21T13:44:10.638Z,69.79
2018-02-21T13:46:39.122Z,69.96
2018-02-21T13:49:07.635Z,70.38
2018-02-21T13:51:36.098Z,70.05
2018-02-21T13:54:04.614Z,70.69
2018-02-21T13:56:33.114Z,70.24
2018-02-21T13:59:01.614Z,70.03
2018-02-21T14:01:30.076Z,70.23
2018-02-21T14:03:58.586Z,70.24
2018-02-21T14:06:27.046Z,70.11
2018-02-21T14:08:55.514Z,70.89
2018-02-21T14:11:23.999Z,70.82
2018-02-21T14:13:52.461Z,71.02
2018-02-21T14:16:20.970Z,71.13
2018-02-21T14:18:49.437Z,71.10
2018-02-21T14:21:17.978Z,71.59
2018-02-21T14:23:46.439Z,71.30
2018-02-21T14:26:14.967Z,71.15
2018-02-21T14:28:43.490Z,70.76
2018-02-21T14:31:12.009Z,70.74
2018-02-21T14:33:40.510Z,70.48
2018-02-21T14:36:08.974Z,71.53
2018-02-21T14:38:37.468Z,71.25
2018-02-21T14:41:05.920Z,71.43
2018-02-21T14:43:34.434Z,71.39
2018-02-21T14:46:02.936Z,70.69
2018-02-21T14:48:31.410Z,71.05
2018-02-21T14:50:59.906Z,70.89
2018-02-21T14:53:28.414Z,71.08
2018-02-21T14:55:56.937Z,71.42
2018-02-21T14:58:25.449Z,72.42
2018-02-21T15:00:53.928Z,73.00
2018-02-21T15:03:22.418Z,72.19
2018-02-21T15:05:50.891Z,72.39
2018-02-21T15:08:19.394Z,72.57
2018-02-21T15:10:47.886Z,72.63
2018-02-21T15:13:16.380Z,72.45
2018-02-21T15:15:44.846Z,73.00
2018-02-21T15:18:13.357Z,72.13
2018-02-21T15:20:41.898Z,72.37
2018-02-21T15:23:10.351Z,71.66
2018-02-21T15:25:38.814Z,72.11
2018-02-21T15:28:07.362Z,72.33
2018-02-21T15:30:35.838Z,72.44
2018-02-21T15:33:04.337Z,72.20
2018-02-21T15:35:32.790Z,72.23
2018-02-21T15:38:01.286Z,72.25
2018-02-21T15:40:29.814Z,72.40
2018-02-21T15:42:58.318Z,72.51
2018-02-21T15:45:26.777Z,72.09
2018-02-21T15:47:55.267Z,72.39
2018-02-21T15:50:23.783Z,72.39
2018-02-21T15:52:52.277Z,72.75
2018-02-21T15:55:20.733Z,72.46
2018-02-21T15:57:49.230Z,72.30
2018-02-21T16:00:17.686Z,72.31
2018-02-21T16:02:46.187Z,72.05
2018-02-21T16:05:14.651Z,72.44
2018-02-21T16:07:43.158Z,72.52
2018-02-21T16:10:11.623Z,72.33
2018-02-21T16:12:40.097Z,72.97
2018-02-21T16:15:08.606Z,72.90
2018-02-21T16:17:37.082Z,72.27
2018-02-21T16:20:05.543Z,72.52
2018-02-21T16:22:34.086Z,73.17
2018-02-21T16:25:02.556Z,73.37
2018-02-21T16:27:31.054Z,72.86
2018-02-21T16:29:59.524Z,73.18
2018-02-21T16:32:28.042Z,73.32
2018-02-21T16:34:56.534Z,73.26
2018-02-21T16:37:25.039Z,73.48
2018-02-21T16:39:53.498Z,74.34
2018-02-21T16:42:21.956Z,73.41
2018-02-21T16:44:50.453Z,73.72
2018-02-21T16:47:18.911Z,73.20
2018-02-21T16:49:47.366Z,73.34
2018-02-21T16:52:15.855Z,72.78
2018-02-21T16:54:44.314Z,73.89
2018-02-21T16:57:12.824Z,73.82
2018-02-21T16:59:41.281Z,73.50
2018-02-21T17:02:09.762Z,73.64
2018-02-21T17:04:38.266Z,73.33
2018-02-21T17:07:06.762Z,74.02
2018-02-21T17:09:35.228Z,73.27
2018-02-21T17:12:03.737Z,73.54
2018-02-21T17:14:32.193Z,73.00
2018-02-21T17:17:00.671Z,73.52
2018-02-21T17:19:29.170Z,72.87
2018-02-21T17:21:57.647Z,72.91
2018-02-21T17:24:26.155Z,72.87
2018-02-21T17:26:54.626Z,73.06
2018-02-21T17:29:23.122Z,73.19
2018-02-21T17:31:51.665Z,73.10
2018-02-21T17:34:20.125Z,72.92
2018-02-21T17:36:48.607Z,73.13
2018-02-21T17:39:17.101Z,73.25
2018-02-21T17:41:45.566Z,72.90
2018-02-21T17:44:14.057Z,73.23
2018-02-21T17:46:42.549Z,72.94
2018-02-21T17:49:11.045Z,72.82
2018-02-21T17:51:39.506Z,72.91
2018-02-21T17:54:08.010Z,72.91
2018-02-21T17:56:36.512Z,72.93
2018-02-21T17:59:05.008Z,72.65
2018-02-21T18:01:33.465Z,73.03
2018-02-21T18:04:01.961Z,73.56
2018-02-21T18:06:30.421Z,72.74
2018-02-21T18:08:58.929Z,72.77
2018-02-21T18:11:27.386Z,72.56
2018-02-21T18:13:55.893Z,72.70
2018-02-21T18:16:24.412Z,72.53
2018-02-21T18:18:52.892Z,72.58
2018-02-21T18:21:26.845Z,72.60
2018-02-21T18:23:55.307Z,72.54
2018-02-21T18:26:23.794Z,72.55
2018-02-21T18:28:52.293Z,72.62
2018-02-21T18:31:20.807Z,72.57
2018-02-21T18:33:49.263Z,72.13
2018-02-21T18:36:17.783Z,72.39
2018-02-21T18:38:46.282Z,72.71
2018-02-21T18:41:14.734Z,72.44
2018-02-21T18:43:43.226Z,72.48
2018-02-21T18:46:11.694Z,72.24
2018-02-21T18:48:40.189Z,72.48
2018-02-21T18:51:08.694Z,72.08
2018-02-21T18:53:37.233Z,72.39
2018-02-21T18:56:05.730Z,72.26
2018-02-21T18:58:34.226Z,72.50
2018-02-21T19:01:03.668Z,72.34
2018-02-21T19:03:32.206Z,72.40
2018-02-21T19:06:00.715Z,72.28
2018-02-21T19:08:29.214Z,72.50
2018-02-21T19:10:57.719Z,72.24
2018-02-21T19:13:26.182Z,72.29
2018-02-21T19:15:54.641Z,72.45
2018-02-21T19:18:23.141Z,72.55
2018-02-21T19:20:51.624Z,72.62
2018-02-21T19:23:20.122Z,72.90
2018-02-21T19:25:48.614Z,72.64
2018-02-21T19:28:17.117Z,72.38
2018-02-21T19:30:45.570Z,72.43
2018-02-21T19:33:14.046Z,72.44
2018-02-21T19:35:42.554Z,72.71
2018-02-21T19:38:11.015Z,72.86
2018-02-21T19:40:39.527Z,72.72
2018-02-21T19:43:08.032Z,73.03
2018-02-21T19:45:36.499Z,73.01
2018-02-21T19:48:04.986Z,72.97
2018-02-21T19:50:34.377Z,73.25
2018-02-21T19:53:02.837Z,73.22
2018-02-21T19:55:31.329Z,72.96
2018-02-21T19:57:59.833Z,73.32
2018-02-21T20:00:28.285Z,73.45
2018-02-21T20:02:56.748Z,73.34
2018-02-21T20:05:25.251Z,73.50
2018-02-21T20:07:53.745Z,73.08
2018-02-21T20:10:22.241Z,72.67
2018-02-21T20:12:50.750Z,72.59
2018-02-21T20:15:19.269Z,72.41
2018-02-21T20:17:47.726Z,72.22
2018-02-21T20:20:16.186Z,72.03
2018-02-21T20:22:44.690Z,72.07
2018-02-21T20:25:13.160Z,72.10
2018-02-21T20:27:41.668Z,72.04
2018-02-21T20:30:10.178Z,72.07
2018-02-21T20:32:38.652Z,71.99
2018-02-21T20:35:07.154Z,72.06
2018-02-21T20:37:35.646Z,71.80
2018-02-21T20:40:04.106Z,71.75
2018-02-21T20:42:32.593Z,71.79
2018-02-21T20:45:01.068Z,71.70
2018-02-21T20:47:29.569Z,71.97
2018-02-21T20:49:58.083Z,72.55
2018-02-21T20:52:26.547Z,72.16
2018-02-21T20:54:55.050Z,72.19
2018-02-21T20:57:23.524Z,72.07
2018-02-21T20:59:52.027Z,72.00
2018-02-21T21:02:20.503Z,72.02
2018-02-21T21:04:49.046Z,72.38
2018-02-21T21:07:17.556Z,72.27
2018-02-21T21:09:46.062Z,72.25
2018-02-21T21:12:14.557Z,72.31
2018-02-21T21:14:43.063Z,72.32
2018-02-21T21:17:11.565Z,72.45
2018-02-21T21:19:40.029Z,72.16
2018-02-21T21:22:08.526Z,72.31
2018-02-21T21:24:37.010Z,72.51
2018-02-21T21:27:05.506Z,72.44
2018-02-21T21:29:33.970Z,72.77
2018-02-21T21:32:02.475Z,72.56
2018-02-21T21:34:30.958Z,73.30
2018-02-21T21:36:59.466Z,72.74
2018-02-21T21:39:27.927Z,72.90
2018-02-21T21:41:56.403Z,72.36
2018-02-21T21:44:24.897Z,72.46
2018-02-21T21:46:53.389Z,72.17
2018-02-21T21:49:21.907Z,72.14
2018-02-21T21:51:50.371Z,72.65
2018-02-21T21:54:18.869Z,72.73
2018-02-21T21:56:47.325Z,72.39
2018-02-21T21:59:15.894Z,72.26
2018-02-21T22:01:44.335Z,72.15
2018-02-21T22:04:12.859Z,72.01
2018-02-21T22:06:41.322Z,71.99
2018-02-21T22:09:09.792Z,72.02
2018-02-21T22:11:38.302Z,72.24
2018-02-21T22:14:06.779Z,72.10
2018-02-21T22:16:35.278Z,71.89
2018-02-21T22:19:03.770Z,71.96
2018-02-21T22:21:32.234Z,72.05
2018-02-21T22:24:00.774Z,71.96
2018-02-21T22:26:29.266Z,72.07
2018-02-21T22:28:57.774Z,72.14
2018-02-21T22:31:26.285Z,72.16
2018-02-21T22:33:54.746Z,71.95
2018-02-21T22:36:23.246Z,72.17
2018-02-21T22:38:51.705Z,72.00
2018-02-21T22:41:20.194Z,71.89
2018-02-21T22:43:48.654Z,71.94
2018-02-21T22:46:17.150Z,71.99
2018-02-21T22:48:45.645Z,72.29
2018-02-21T22:51:14.102Z,71.98
2018-02-21T22:53:42.561Z,71.78
2018-02-21T22:56:11.066Z,72.17
2018-02-21T22:58:39.580Z,72.03
2018-02-21T23:01:08.039Z,71.99
2018-02-21T23:03:36.522Z,72.10
2018-02-21T23:06:05.022Z,72.19
2018-02-21T23:08:33.510Z,72.04
2018-02-21T23:11:02.023Z,72.71
2018-02-21T23:13:30.478Z,72.19
2018-02-21T23:15:58.982Z,72.02
2018-02-21T23:18:27.458Z,72.02
2018-02-21T23:20:55.951Z,72.14
2018-02-21T23:23:24.401Z,72.28
2018-02-21T23:25:53.781Z,72.03
2018-02-21T23:28:22.236Z,72.13
2018-02-21T23:30:50.744Z,71.97
2018-02-21T23:33:19.206Z,72.25
2018-02-21T23:35:47.682Z,72.21
2018-02-21T23:38:16.137Z,72.25
2018-02-21T23:40:44.619Z,72.32
2018-02-21T23:43:13.118Z,72.15
2018-02-21T23:45:41.589Z,72.22
2018-02-21T23:48:10.073Z,72.82
2018-02-21T23:50:38.571Z,72.19
2018-02-21T23:53:07.033Z,72.51
2018-02-21T23:55:35.522Z,72.91
2018-02-21T23:58:03.982Z,72.67
